Gozo/Qala, Malta
Current Conditions -  °F | °C
As of 10:15 AM on Saturday 29 Nov 2014 (Local Time) from LMML Reporting Station
Clear Clear  
Wind Chill: 72°   Ceiling: Unl
Heat Index: 72°   Visibility: 6mi
Dew Point: 64°   Wind: 12mph
Humidity: 78%   Direction: 200°SSW
Pressure: 29.91"   Gusts: NA
Location:  36.05°N, 14.27°E
Report Text: LMML 290815Z 20010KT 9000 NSC 22/18 Q1013 NOSIG
Loading
Personal Weather Stations






























Interactive Weather Map New forecast layout! Learn more

10-Day Weather Forecast

Advertisements
Track Severe Weather on mobile